Time;durP1;ratioP1;P1;durP2;ratioP2;P2;SDS_P1;SDS_P2;PMS_P1;PMS_P2;Temp;Humidity;BMP_temperature;BMP_pressure;BME280_temperature;BME280_humidity;BME280_pressure;Samples;Min_cycle;Max_cycle;Signal;HPM_P1;HPM_P2
2021/09/16 00:00:28;;;;;;;35.65;23.00;;;15.70;99.90;;;;;;4986186;28;20565;-75
2021/09/16 00:02:54;;;;;;;40.85;22.88;;;15.60;99.90;;;;;;4987881;28;20470;-76
2021/09/16 00:05:21;;;;;;;38.38;23.67;;;15.60;99.90;;;;;;4986843;28;20097;-75
2021/09/16 00:07:48;;;;;;;42.85;24.42;;;15.70;99.90;;;;;;4985106;28;20054;-75
2021/09/16 00:10:15;;;;;;;41.60;25.23;;;15.60;99.90;;;;;;4984465;28;20034;-75
2021/09/16 00:12:42;;;;;;;38.10;26.02;;;15.60;99.90;;;;;;4969842;28;20724;-75
2021/09/16 00:15:10;;;;;;;42.08;25.95;;;15.60;99.90;;;;;;4985647;28;20051;-75
2021/09/16 00:17:37;;;;;;;51.05;28.80;;;15.60;99.90;;;;;;4986890;28;20086;-76
2021/09/16 00:20:05;;;;;;;48.83;31.83;;;15.70;99.90;;;;;;4985862;28;20061;-75
2021/09/16 00:22:31;;;;;;;49.15;32.70;;;15.70;99.90;;;;;;4986067;28;20043;-76
2021/09/16 00:24:58;;;;;;;54.80;34.65;;;15.70;99.90;;;;;;4988191;28;20065;-75
2021/09/16 00:27:25;;;;;;;49.95;32.35;;;15.70;99.90;;;;;;4986033;28;20226;-75
2021/09/16 00:29:52;;;;;;;56.13;34.55;;;15.60;99.90;;;;;;4986736;28;20087;-75
2021/09/16 00:32:18;;;;;;;53.55;34.25;;;15.60;99.90;;;;;;4986893;28;20061;-75
2021/09/16 00:34:51;;;;;;;44.30;28.73;;;15.60;99.90;;;;;;4987656;28;20061;-76
2021/09/16 00:37:18;;;;;;;44.75;30.10;;;15.50;99.90;;;;;;4986070;28;20743;-75
2021/09/16 00:39:46;;;;;;;46.45;29.52;;;15.50;99.90;;;;;;4989506;28;20518;-75
2021/09/16 00:42:16;;;;;;;48.47;30.02;;;15.50;99.90;;;;;;4987922;28;20054;-76
2021/09/16 00:44:44;;;;;;;44.00;27.30;;;15.50;99.90;;;;;;4986365;28;20043;-75
2021/09/16 00:47:11;;;;;;;38.17;26.17;;;15.50;99.90;;;;;;4984258;28;20066;-76
2021/09/16 00:49:38;;;;;;;38.40;24.45;;;15.50;99.90;;;;;;4987288;28;20054;-76
2021/09/16 00:52:07;;;;;;;35.42;22.27;;;15.50;99.90;;;;;;4985041;28;20089;-76
2021/09/16 00:54:34;;;;;;;25.98;17.83;;;15.50;99.90;;;;;;5018754;28;20054;-75
2021/09/16 00:57:04;;;;;;;28.95;16.70;;;15.40;99.90;;;;;;4985423;28;20148;-75
2021/09/16 00:59:33;;;;;;;21.17;14.52;;;15.30;99.90;;;;;;4985993;28;20046;-76
2021/09/16 01:02:00;;;;;;;22.05;12.60;;;15.30;99.90;;;;;;4986587;28;20077;-75
2021/09/16 01:04:29;;;;;;;16.52;11.75;;;15.20;99.90;;;;;;5002588;28;20050;-75
2021/09/16 01:06:56;;;;;;;16.70;10.90;;;15.10;99.90;;;;;;5001063;28;20077;-75
2021/09/16 01:09:24;;;;;;;19.33;11.52;;;15.10;99.90;;;;;;4982919;28;20206;-75
2021/09/16 01:11:52;;;;;;;14.65;9.82;;;15.10;99.90;;;;;;4984532;28;20134;-76
2021/09/16 01:14:23;;;;;;;14.02;9.68;;;15.00;99.90;;;;;;4985688;28;20522;-76
2021/09/16 01:16:51;;;;;;;22.60;10.23;;;15.00;99.90;;;;;;4983898;28;20104;-76
2021/09/16 01:19:18;;;;;;;17.70;10.52;;;15.00;99.90;;;;;;4986335;28;20058;-76
2021/09/16 01:21:46;;;;;;;17.90;9.77;;;15.00;99.90;;;;;;4983641;28;20054;-76
2021/09/16 01:24:13;;;;;;;12.48;8.27;;;15.00;99.90;;;;;;4985525;28;20507;-76
2021/09/16 01:26:42;;;;;;;13.52;8.48;;;14.90;99.90;;;;;;4986002;28;20051;-76
2021/09/16 01:29:09;;;;;;;12.18;7.25;;;14.80;99.90;;;;;;4985276;28;20108;-76
2021/09/16 01:31:37;;;;;;;10.63;6.60;;;14.90;99.90;;;;;;4980899;28;20306;-76
2021/09/16 01:34:05;;;;;;;8.32;6.07;;;14.80;99.90;;;;;;4985817;28;20406;-76
2021/09/16 01:36:32;;;;;;;9.48;3.92;;;14.80;99.90;;;;;;4985518;28;20420;-76
2021/09/16 01:39:01;;;;;;;8.13;4.13;;;14.80;99.90;;;;;;4986315;28;20334;-76
2021/09/16 01:41:27;;;;;;;9.48;3.95;;;14.80;99.90;;;;;;4986208;28;20565;-76
2021/09/16 01:43:54;;;;;;;8.07;3.45;;;14.70;99.90;;;;;;4983120;28;20050;-76
2021/09/16 01:46:21;;;;;;;6.30;3.55;;;14.70;99.90;;;;;;4983427;28;20081;-76
2021/09/16 01:48:48;;;;;;;6.32;2.60;;;14.70;99.90;;;;;;4985845;28;20089;-76
2021/09/16 01:51:15;;;;;;;5.93;3.13;;;14.70;99.90;;;;;;4985535;28;20097;-76
2021/09/16 01:53:42;;;;;;;6.10;2.95;;;14.60;99.90;;;;;;4983466;28;20470;-76
2021/09/16 01:56:08;;;;;;;5.43;2.60;;;14.60;99.90;;;;;;4984398;28;20097;-76
2021/09/16 01:58:38;;;;;;;4.88;2.63;;;14.50;99.90;;;;;;4984997;28;20085;-76
2021/09/16 02:01:05;;;;;;;4.97;2.30;;;14.50;99.90;;;;;;4983085;28;20082;-75
2021/09/16 02:03:32;;;;;;;2.85;1.95;;;14.40;99.90;;;;;;4986215;28;20138;-76
2021/09/16 02:05:59;;;;;;;6.03;1.98;;;14.40;99.90;;;;;;4985432;28;20117;-76
2021/09/16 02:08:26;;;;;;;7.88;1.98;;;14.40;99.90;;;;;;4982890;28;20058;-76
2021/09/16 02:10:52;;;;;;;6.05;1.98;;;14.40;99.90;;;;;;4982378;28;20078;-76
2021/09/16 02:13:20;;;;;;;4.78;1.90;;;14.40;99.90;;;;;;4999537;28;20515;-76
2021/09/16 02:15:47;;;;;;;6.20;2.28;;;14.40;99.90;;;;;;4985078;28;20097;-76
2021/09/16 02:18:13;;;;;;;5.93;2.00;;;14.30;99.90;;;;;;4985287;28;20054;-75
2021/09/16 02:20:40;;;;;;;3.95;2.13;;;14.40;99.90;;;;;;4984366;28;20418;-76
2021/09/16 02:23:07;;;;;;;7.00;2.13;;;14.30;99.90;;;;;;4985742;28;20054;-76
2021/09/16 02:25:34;;;;;;;5.43;2.83;;;14.30;99.90;;;;;;4983733;28;20097;-75
2021/09/16 02:28:01;;;;;;;5.95;2.58;;;14.10;99.90;;;;;;4983082;28;20058;-76
2021/09/16 02:30:28;;;;;;;5.45;2.53;;;14.10;99.90;;;;;;4982114;28;20445;-76
2021/09/16 02:32:55;;;;;;;5.65;2.83;;;14.10;99.90;;;;;;4981887;28;20530;-76
2021/09/16 02:35:21;;;;;;;4.38;2.58;;;14.20;99.90;;;;;;4982127;28;20522;-76
2021/09/16 02:37:48;;;;;;;7.72;3.03;;;14.20;99.90;;;;;;4984845;28;20300;-76
2021/09/16 02:40:15;;;;;;;10.10;2.83;;;14.20;99.90;;;;;;4983163;28;20125;-76
2021/09/16 02:42:41;;;;;;;6.55;3.20;;;14.20;99.90;;;;;;4984357;28;20058;-76
2021/09/16 02:45:09;;;;;;;8.05;3.20;;;14.20;99.90;;;;;;4983247;28;20408;-75
2021/09/16 02:47:35;;;;;;;20.30;3.85;;;14.20;99.90;;;;;;4979582;28;20050;-76
2021/09/16 02:50:03;;;;;;;8.02;3.85;;;14.20;99.90;;;;;;4982766;28;20046;-76
2021/09/16 02:52:30;;;;;;;7.97;3.72;;;14.20;99.90;;;;;;4978011;28;20492;-75
2021/09/16 02:54:56;;;;;;;8.55;3.85;;;14.20;99.90;;;;;;4965587;28;20451;-75
2021/09/16 02:57:23;;;;;;;7.75;2.92;;;14.20;99.90;;;;;;4983830;28;20078;-76
2021/09/16 02:59:50;;;;;;;7.65;2.50;;;14.10;99.90;;;;;;4983796;28;20515;-76
2021/09/16 03:02:17;;;;;;;6.28;2.63;;;14.00;99.90;;;;;;4981765;28;20276;-76
2021/09/16 03:04:43;;;;;;;7.93;2.08;;;14.00;99.90;;;;;;4982146;28;20196;-76
2021/09/16 03:07:10;;;;;;;3.95;2.10;;;13.90;99.90;;;;;;4983372;28;20543;-76
2021/09/16 03:09:37;;;;;;;8.73;2.08;;;14.00;99.90;;;;;;4982178;28;20054;-76
2021/09/16 03:12:04;;;;;;;4.97;1.95;;;14.00;99.90;;;;;;4981229;28;20412;-76
2021/09/16 03:14:31;;;;;;;7.05;2.60;;;14.10;99.90;;;;;;4984377;28;20054;-76
2021/09/16 03:16:57;;;;;;;5.10;3.15;;;14.00;99.90;;;;;;4982142;28;20087;-76
2021/09/16 03:19:24;;;;;;;6.20;1.90;;;14.00;99.90;;;;;;4983827;28;20069;-76
2021/09/16 03:21:51;;;;;;;6.05;2.47;;;14.00;99.90;;;;;;4982205;28;20189;-76
2021/09/16 03:24:17;;;;;;;4.53;1.88;;;14.00;99.90;;;;;;4983366;28;20038;-76
2021/09/16 03:26:44;;;;;;;7.35;2.47;;;14.00;99.90;;;;;;4983716;28;20466;-76
2021/09/16 03:29:11;;;;;;;6.07;2.13;;;13.90;99.90;;;;;;4983852;28;20058;-76
2021/09/16 03:31:38;;;;;;;8.45;2.67;;;13.90;99.90;;;;;;4981807;28;20097;-76
2021/09/16 03:34:04;;;;;;;9.88;2.45;;;13.90;99.90;;;;;;4981607;28;20077;-75
2021/09/16 03:36:31;;;;;;;9.20;2.20;;;13.90;99.90;;;;;;4983379;28;20369;-75
2021/09/16 03:38:58;;;;;;;9.63;2.00;;;13.80;99.90;;;;;;4983458;28;20426;-76
2021/09/16 03:41:25;;;;;;;4.60;1.77;;;13.80;99.90;;;;;;4984690;28;20502;-75
2021/09/16 03:43:53;;;;;;;7.10;1.50;;;13.80;99.90;;;;;;4965795;28;20070;-75
2021/09/16 03:46:20;;;;;;;7.35;1.83;;;13.80;99.90;;;;;;4981012;28;20050;-76
2021/09/16 03:48:46;;;;;;;4.03;1.50;;;13.80;99.90;;;;;;4983816;28;20260;-76
2021/09/16 03:51:13;;;;;;;3.72;1.45;;;13.80;99.90;;;;;;4965994;28;20078;-75
2021/09/16 03:53:40;;;;;;;6.18;1.92;;;13.70;99.90;;;;;;4986370;28;20112;-76
2021/09/16 03:56:06;;;;;;;2.92;1.48;;;13.70;99.90;;;;;;4997849;28;20046;-76
2021/09/16 03:58:33;;;;;;;4.75;1.48;;;13.70;99.90;;;;;;4982984;28;20058;-76
2021/09/16 04:01:00;;;;;;;3.83;1.40;;;13.70;99.90;;;;;;4986277;28;20069;-76
2021/09/16 04:03:27;;;;;;;4.93;2.00;;;13.70;99.90;;;;;;4985390;28;20065;-76
2021/09/16 04:05:53;;;;;;;5.13;1.13;;;13.70;99.90;;;;;;4984539;28;20152;-76
2021/09/16 04:08:20;;;;;;;4.00;1.65;;;13.60;99.90;;;;;;4985251;28;20126;-75
2021/09/16 04:10:47;;;;;;;6.72;2.38;;;13.60;99.90;;;;;;4983438;28;20050;-76
2021/09/16 04:13:14;;;;;;;8.75;2.28;;;13.60;99.90;;;;;;4985943;28;20070;-76
2021/09/16 04:15:40;;;;;;;10.27;1.75;;;13.50;99.90;;;;;;4986565;28;20054;-75
2021/09/16 04:18:07;;;;;;;7.05;1.90;;;13.60;99.90;;;;;;4993324;28;20081;-75
2021/09/16 04:20:34;;;;;;;10.48;2.22;;;13.50;99.90;;;;;;4986354;28;20046;-76
2021/09/16 04:23:01;;;;;;;8.80;1.88;;;13.60;99.90;;;;;;4986092;28;20274;-75
2021/09/16 04:25:28;;;;;;;7.32;1.73;;;13.60;99.90;;;;;;4984641;28;20054;-75
2021/09/16 04:27:56;;;;;;;4.68;1.80;;;13.60;99.90;;;;;;4984939;28;20077;-76
2021/09/16 04:30:22;;;;;;;3.67;2.00;;;13.50;99.90;;;;;;4985094;28;21085;-76
2021/09/16 04:32:49;;;;;;;5.43;2.22;;;13.50;99.90;;;;;;4970128;28;20503;-76
2021/09/16 04:35:16;;;;;;;9.70;2.50;;;13.50;99.90;;;;;;4985733;28;20060;-76
2021/09/16 04:37:43;;;;;;;11.60;2.55;;;13.50;99.90;;;;;;4987042;28;20116;-76
2021/09/16 04:40:09;;;;;;;5.93;2.00;;;13.50;99.90;;;;;;4968324;28;20086;-75
2021/09/16 04:42:36;;;;;;;8.20;2.40;;;13.50;99.90;;;;;;4968034;28;20475;-75
2021/09/16 04:45:03;;;;;;;7.05;2.45;;;13.50;99.90;;;;;;4974470;28;20577;-75
2021/09/16 04:47:30;;;;;;;10.18;2.38;;;13.50;99.90;;;;;;4980419;28;20042;-75
2021/09/16 04:49:57;;;;;;;6.63;2.70;;;13.40;99.90;;;;;;4985982;28;20070;-75
2021/09/16 04:52:25;;;;;;;6.40;2.47;;;13.40;99.90;;;;;;4985572;28;20191;-75
2021/09/16 04:54:52;;;;;;;5.97;3.42;;;13.40;99.90;;;;;;4985205;28;20077;-75
2021/09/16 04:57:18;;;;;;;6.60;3.10;;;13.40;99.90;;;;;;4985573;28;20108;-76
2021/09/16 04:59:45;;;;;;;8.52;3.00;;;13.50;99.90;;;;;;4986077;28;20078;-75
2021/09/16 05:02:12;;;;;;;12.40;3.17;;;13.50;99.90;;;;;;4987181;28;20054;-75
2021/09/16 05:04:39;;;;;;;5.20;2.80;;;13.50;99.90;;;;;;4987882;28;20050;-76
2021/09/16 05:07:05;;;;;;;9.70;3.40;;;13.50;99.90;;;;;;4986068;28;20054;-76
2021/09/16 05:09:32;;;;;;;9.60;3.83;;;13.40;99.90;;;;;;4984195;28;20486;-75
2021/09/16 05:11:59;;;;;;;6.57;4.28;;;13.50;99.90;;;;;;4968228;28;20101;-76
2021/09/16 05:14:25;;;;;;;7.72;3.47;;;13.50;99.90;;;;;;4970073;28;20053;-75
2021/09/16 05:16:52;;;;;;;11.90;4.05;;;13.40;99.90;;;;;;4982689;28;20042;-75
2021/09/16 05:19:19;;;;;;;11.40;4.60;;;13.40;99.90;;;;;;4983791;28;20097;-75
2021/09/16 05:21:46;;;;;;;12.30;4.35;;;13.40;99.90;;;;;;4984925;28;20050;-77
2021/09/16 05:24:19;;;;;;;10.50;4.78;;;13.50;99.90;;;;;;4983825;28;20058;-75
2021/09/16 05:26:47;;;;;;;11.02;4.65;;;13.50;99.90;;;;;;4995752;28;20050;-76
2021/09/16 05:29:14;;;;;;;8.27;5.40;;;13.40;99.90;;;;;;4988231;28;20093;-75
2021/09/16 05:31:40;;;;;;;14.23;6.40;;;13.50;99.90;;;;;;4978459;28;20530;-75
2021/09/16 05:34:07;;;;;;;9.63;5.95;;;13.50;99.90;;;;;;4983644;28;20136;-76
2021/09/16 05:36:34;;;;;;;13.75;6.82;;;13.40;99.90;;;;;;4985293;28;20055;-75
2021/09/16 05:39:01;;;;;;;11.35;6.35;;;13.40;99.90;;;;;;4984392;28;20241;-75
2021/09/16 05:41:29;;;;;;;14.45;7.63;;;13.50;99.90;;;;;;4967335;28;20113;-75
2021/09/16 05:43:57;;;;;;;8.60;6.45;;;13.50;99.90;;;;;;4981566;28;20486;-75
2021/09/16 05:46:23;;;;;;;7.82;6.28;;;13.50;99.90;;;;;;4982033;28;20501;-75
2021/09/16 05:48:50;;;;;;;11.57;7.38;;;13.40;99.90;;;;;;4979265;28;20042;-76
2021/09/16 05:51:17;;;;;;;13.57;6.45;;;13.50;99.90;;;;;;4981213;28;20046;-75
2021/09/16 05:53:44;;;;;;;13.15;8.07;;;13.50;99.90;;;;;;4976650;28;20054;-75
2021/09/16 05:56:11;;;;;;;10.90;7.22;;;13.60;99.90;;;;;;4982979;28;20049;-76
2021/09/16 05:58:38;;;;;;;9.98;6.68;;;13.60;99.90;;;;;;4985152;28;20121;-75
2021/09/16 06:01:05;;;;;;;10.52;6.47;;;13.60;99.90;;;;;;4983586;28;20050;-75
2021/09/16 06:03:32;;;;;;;15.38;7.18;;;13.70;99.90;;;;;;4982589;28;20500;-75
2021/09/16 06:05:58;;;;;;;15.55;6.57;;;13.60;99.90;;;;;;4983968;28;20097;-76
2021/09/16 06:08:25;;;;;;;14.10;6.65;;;13.70;99.90;;;;;;4983663;28;20058;-75
2021/09/16 06:10:52;;;;;;;12.63;6.63;;;13.70;99.90;;;;;;4984444;28;20066;-75
2021/09/16 06:13:18;;;;;;;12.27;6.05;;;13.80;99.90;;;;;;4984366;28;20058;-75
2021/09/16 06:15:45;;;;;;;11.82;6.07;;;13.80;99.90;;;;;;4967460;28;20428;-75
2021/09/16 06:18:12;;;;;;;10.18;7.05;;;13.90;99.90;;;;;;4983095;28;20130;-76
2021/09/16 06:20:39;;;;;;;10.48;6.05;;;13.80;99.90;;;;;;4983759;28;20085;-76
2021/09/16 06:23:05;;;;;;;13.32;6.78;;;13.80;99.90;;;;;;4980792;28;20112;-73
2021/09/16 06:25:32;;;;;;;16.58;7.25;;;13.70;99.90;;;;;;4991943;28;20046;-74
2021/09/16 06:27:59;;;;;;;12.60;6.65;;;13.70;99.90;;;;;;4982793;28;20081;-73
2021/09/16 06:30:26;;;;;;;11.45;6.80;;;13.80;99.90;;;;;;4983132;28;20404;-73
2021/09/16 06:32:53;;;;;;;13.82;7.07;;;13.80;99.90;;;;;;4984206;28;20109;-73
2021/09/16 06:35:20;;;;;;;12.05;7.13;;;13.70;99.90;;;;;;4984339;28;20058;-73
2021/09/16 06:37:47;;;;;;;18.15;7.55;;;13.70;99.90;;;;;;4983247;28;20474;-74
2021/09/16 06:40:14;;;;;;;11.60;7.72;;;13.70;99.90;;;;;;4982609;28;20054;-74
2021/09/16 06:42:41;;;;;;;12.93;6.78;;;13.70;99.90;;;;;;4984774;28;20061;-73
2021/09/16 06:45:09;;;;;;;16.73;8.15;;;13.80;99.90;;;;;;4984860;28;20113;-73
2021/09/16 06:47:36;;;;;;;13.80;8.20;;;13.80;99.90;;;;;;4984980;28;20086;-74
2021/09/16 06:50:04;;;;;;;10.27;7.72;;;13.80;99.90;;;;;;4977742;28;20050;-72
2021/09/16 06:52:31;;;;;;;13.35;7.82;;;13.90;99.90;;;;;;4979332;28;20101;-73
2021/09/16 06:54:58;;;;;;;13.43;6.93;;;13.90;99.90;;;;;;4983019;28;20038;-73
2021/09/16 06:57:25;;;;;;;15.60;7.50;;;14.00;99.90;;;;;;4987392;28;20530;-73
2021/09/16 06:59:52;;;;;;;17.58;7.78;;;14.10;99.90;;;;;;4984453;28;20066;-74
2021/09/16 07:02:19;;;;;;;18.00;8.73;;;13.90;99.90;;;;;;4983976;28;20050;-73
2021/09/16 07:04:46;;;;;;;13.75;8.40;;;13.90;99.90;;;;;;4984835;28;20053;-73
2021/09/16 07:07:12;;;;;;;15.13;8.93;;;13.90;99.90;;;;;;4981889;28;20058;-73
2021/09/16 07:09:39;;;;;;;15.25;8.15;;;13.90;99.90;;;;;;4982281;28;20342;-74
2021/09/16 07:12:06;;;;;;;16.95;9.07;;;13.90;99.90;;;;;;4983050;28;20096;-73
2021/09/16 07:14:33;;;;;;;18.20;9.45;;;13.90;99.90;;;;;;4962786;28;20058;-73
2021/09/16 07:17:00;;;;;;;17.33;10.25;;;13.90;99.90;;;;;;4964250;28;20061;-73
2021/09/16 07:19:28;;;;;;;16.52;11.32;;;13.90;99.90;;;;;;4973796;28;20065;-73
2021/09/16 07:21:55;;;;;;;16.67;10.95;;;13.90;99.90;;;;;;4982412;28;20046;-74
2021/09/16 07:24:21;;;;;;;15.35;10.45;;;13.90;99.90;;;;;;4984213;28;20051;-73
2021/09/16 07:26:51;;;;;;;15.20;9.60;;;14.00;99.90;;;;;;4982229;28;20050;-73
2021/09/16 07:29:20;;;;;;;12.35;8.40;;;14.10;99.90;;;;;;4975387;28;20054;-74
2021/09/16 07:31:48;;;;;;;14.10;8.98;;;14.00;99.90;;;;;;4983894;28;20058;-75
2021/09/16 07:34:16;;;;;;;11.88;8.02;;;14.10;99.90;;;;;;4985022;28;20242;-75
2021/09/16 07:36:45;;;;;;;17.70;8.45;;;14.20;99.90;;;;;;4987514;28;20369;-74
2021/09/16 07:39:13;;;;;;;19.42;9.05;;;14.30;99.90;;;;;;4987093;28;20113;-75
2021/09/16 07:41:40;;;;;;;18.05;9.75;;;14.30;99.90;;;;;;4985835;28;20596;-74
2021/09/16 07:44:07;;;;;;;17.02;9.05;;;14.40;99.90;;;;;;4986770;28;20047;-75
2021/09/16 07:46:35;;;;;;;20.00;9.32;;;14.50;99.90;;;;;;4986876;28;20740;-73
2021/09/16 07:49:02;;;;;;;16.55;8.60;;;14.60;99.90;;;;;;4987046;28;20104;-73
2021/09/16 07:51:29;;;;;;;14.20;9.13;;;14.60;99.90;;;;;;4985874;28;20101;-74
2021/09/16 07:53:56;;;;;;;15.38;10.25;;;14.50;99.90;;;;;;4985664;28;20450;-73
2021/09/16 07:56:22;;;;;;;17.90;9.65;;;14.60;99.90;;;;;;4969550;28;20504;-74
2021/09/16 07:58:50;;;;;;;16.23;8.65;;;14.50;99.90;;;;;;4987599;28;20089;-74
2021/09/16 08:01:16;;;;;;;15.18;9.23;;;14.50;99.90;;;;;;4986787;28;20048;-73
2021/09/16 08:03:43;;;;;;;14.85;9.25;;;14.60;99.90;;;;;;4987160;28;20046;-74
2021/09/16 08:06:11;;;;;;;16.98;8.80;;;14.60;99.90;;;;;;4969122;28;20538;-74
2021/09/16 08:08:38;;;;;;;13.55;8.65;;;14.60;99.90;;;;;;4986092;28;20066;-74
2021/09/16 08:11:04;;;;;;;13.93;9.70;;;14.60;99.90;;;;;;4986622;28;20065;-74
2021/09/16 08:13:31;;;;;;;16.10;10.52;;;14.60;99.90;;;;;;4985857;28;20057;-74
2021/09/16 08:15:58;;;;;;;19.00;9.35;;;14.60;99.90;;;;;;4987184;28;20120;-74
2021/09/16 08:18:25;;;;;;;16.67;10.35;;;14.70;99.90;;;;;;4985864;28;20046;-74
2021/09/16 08:20:53;;;;;;;19.75;10.48;;;14.70;99.90;;;;;;4976328;28;20325;-74
2021/09/16 08:23:22;;;;;;;17.92;10.93;;;14.60;99.90;;;;;;4969798;28;20057;-73
2021/09/16 08:25:49;;;;;;;19.15;13.88;;;14.50;99.90;;;;;;4985354;28;20042;-73
2021/09/16 08:28:17;;;;;;;16.88;13.68;;;14.50;99.90;;;;;;4985998;28;20062;-70
2021/09/16 08:30:44;;;;;;;19.25;15.60;;;14.60;99.90;;;;;;4986555;28;20073;-71
2021/09/16 08:33:11;;;;;;;21.63;15.98;;;14.60;99.90;;;;;;4985941;28;20486;-70
2021/09/16 08:35:38;;;;;;;20.92;17.60;;;14.60;99.90;;;;;;4983365;28;20065;-69
2021/09/16 08:38:04;;;;;;;20.67;18.48;;;14.60;99.90;;;;;;4986363;28;20104;-71
2021/09/16 08:40:32;;;;;;;21.40;16.65;;;14.70;99.90;;;;;;4983304;28;20098;-71
2021/09/16 08:43:00;;;;;;;21.17;17.33;;;14.80;99.90;;;;;;4985089;28;20058;-71
2021/09/16 08:45:28;;;;;;;20.88;17.58;;;14.80;99.90;;;;;;4984321;28;20050;-70
2021/09/16 08:47:55;;;;;;;22.20;18.77;;;14.90;99.90;;;;;;4985178;28;20543;-69
2021/09/16 08:50:27;;;;;;;26.35;19.83;;;14.90;99.90;;;;;;4984186;28;20368;-70
2021/09/16 08:52:54;;;;;;;30.50;21.70;;;14.90;99.90;;;;;;4985199;28;20536;-69
2021/09/16 08:55:22;;;;;;;34.05;24.27;;;14.70;99.90;;;;;;4986851;28;20651;-70
2021/09/16 08:57:55;;;;;;;39.38;27.73;;;14.60;99.90;;;;;;4985996;28;20050;-71
2021/09/16 09:00:23;;;;;;;39.85;27.70;;;14.50;99.90;;;;;;4986147;28;20115;-71
2021/09/16 09:02:52;;;;;;;44.10;31.42;;;14.50;99.90;;;;;;4985342;28;20116;-71
2021/09/16 09:05:20;;;;;;;44.33;31.23;;;14.50;99.90;;;;;;4984839;28;20065;-71
2021/09/16 09:07:52;;;;;;;47.20;34.13;;;14.50;99.90;;;;;;4985893;28;20066;-71
2021/09/16 09:10:40;;;;;;;55.50;35.58;;;14.40;99.90;;;;;;4977613;28;20054;-71
2021/09/16 09:13:19;;;;;;;46.80;33.80;;;14.40;99.90;;;;;;4984905;28;20058;-71
2021/09/16 09:15:56;;;;;;;45.70;32.85;;;14.40;99.90;;;;;;4983314;28;21263;-71
2021/09/16 09:18:23;;;;;;;47.58;34.33;;;14.30;99.90;;;;;;4961953;28;20234;-70
2021/09/16 09:21:06;;;;;;;54.70;36.35;;;14.20;99.90;;;;;;4983091;28;20347;-67
2021/09/16 09:23:39;;;;;;;53.50;37.88;;;14.20;99.90;;;;;;4980143;28;20046;-70
2021/09/16 09:26:25;;;;;;;64.10;40.08;;;14.20;99.90;;;;;;4983958;28;20042;-71
2021/09/16 09:28:56;;;;;;;57.03;39.45;;;14.30;99.90;;;;;;4985016;28;20100;-70
2021/09/16 09:31:25;;;;;;;56.40;41.25;;;14.30;99.90;;;;;;4984780;28;20259;-70
2021/09/16 09:33:52;;;;;;;60.08;39.55;;;14.20;99.90;;;;;;4984341;28;20084;-70
2021/09/16 09:36:22;;;;;;;59.38;41.25;;;14.20;99.90;;;;;;4983696;28;20108;-69
2021/09/16 09:38:51;;;;;;;55.42;39.17;;;14.30;99.90;;;;;;4983970;28;20174;-69
2021/09/16 09:41:37;;;;;;;54.90;38.67;;;14.30;99.90;;;;;;4983455;28;20345;-71
2021/09/16 09:44:12;;;;;;;52.55;35.25;;;14.30;99.90;;;;;;4985649;28;20058;-69
2021/09/16 09:46:47;;;;;;;53.72;36.83;;;14.40;99.90;;;;;;4985724;28;20294;-70
2021/09/16 09:49:24;;;;;;;48.20;34.85;;;14.30;99.90;;;;;;4985299;28;20054;-71
2021/09/16 09:51:56;;;;;;;48.30;34.42;;;14.30;99.90;;;;;;4980038;28;20046;-71
2021/09/16 09:54:40;;;;;;;54.53;36.72;;;14.30;99.90;;;;;;4985334;28;20138;-73
2021/09/16 09:57:07;;;;;;;47.72;31.77;;;14.40;99.90;;;;;;4983761;28;20058;-74
2021/09/16 10:00:15;;;;;;;42.67;29.63;;;14.40;99.90;;;;;;4982083;28;20058;-72
2021/09/16 10:02:50;;;;;;;48.33;32.35;;;14.40;99.90;;;;;;4986393;28;20050;-74
2021/09/16 10:05:24;;;;;;;37.78;26.42;;;14.40;99.90;;;;;;4984478;28;20121;-73
2021/09/16 10:07:52;;;;;;;39.95;28.35;;;14.40;99.90;;;;;;4985666;28;20478;-74
2021/09/16 10:10:19;;;;;;;42.65;29.27;;;14.30;99.90;;;;;;4982926;28;20077;-71
2021/09/16 10:12:48;;;;;;;45.17;29.80;;;14.30;99.90;;;;;;4984775;28;20285;-73
2021/09/16 10:15:18;;;;;;;40.22;27.98;;;14.30;99.90;;;;;;4980098;28;20057;-73
2021/09/16 10:17:46;;;;;;;42.70;27.52;;;14.30;99.90;;;;;;4983825;28;20159;-73
2021/09/16 10:20:16;;;;;;;36.85;25.27;;;14.40;99.90;;;;;;4978443;28;20128;-73
2021/09/16 10:22:48;;;;;;;38.47;28.27;;;14.40;99.90;;;;;;4984995;28;20058;-73
2021/09/16 10:25:17;;;;;;;36.22;24.35;;;14.40;99.90;;;;;;4982684;28;20081;-73
2021/09/16 10:28:02;;;;;;;43.83;28.77;;;14.30;99.90;;;;;;4984886;28;20081;-73
2021/09/16 10:30:31;;;;;;;42.38;27.80;;;14.30;99.90;;;;;;4984489;28;20097;-73
2021/09/16 10:33:10;;;;;;;44.80;29.65;;;14.30;99.90;;;;;;4983995;28;20191;-73
2021/09/16 10:35:42;;;;;;;44.92;28.80;;;14.30;99.90;;;;;;4984196;28;20462;-73
2021/09/16 10:38:28;;;;;;;37.75;24.17;;;14.40;99.90;;;;;;4985203;28;20109;-73
2021/09/16 10:41:25;;;;;;;43.13;27.50;;;14.30;99.90;;;;;;4982844;28;20478;-73
2021/09/16 10:44:12;;;;;;;36.10;25.75;;;14.50;99.90;;;;;;4984652;28;20054;-74
2021/09/16 10:46:43;;;;;;;41.35;25.95;;;14.40;99.90;;;;;;4984914;28;20549;-73
2021/09/16 10:49:20;;;;;;;37.72;26.67;;;14.50;99.90;;;;;;4981564;28;20423;-74
2021/09/16 10:51:54;;;;;;;38.10;26.85;;;14.70;99.90;;;;;;4982656;28;20050;-73
2021/09/16 10:54:23;;;;;;;30.53;22.73;;;14.70;99.90;;;;;;4983332;28;20338;-73
2021/09/16 10:57:39;;;;;;;36.50;24.90;;;14.60;99.90;;;;;;4983739;28;20093;-73
2021/09/16 11:00:17;;;;;;;32.35;22.55;;;14.60;99.90;;;;;;4926402;29;20639;-73
2021/09/16 11:02:45;;;;;;;26.85;21.85;;;14.70;99.90;;;;;;4927598;29;20047;-73
2021/09/16 11:05:17;;;;;;;27.23;21.67;;;14.90;99.90;;;;;;4965346;28;20679;-72
2021/09/16 11:07:52;;;;;;;28.02;20.40;;;15.10;99.90;;;;;;4984334;28;20050;-72
2021/09/16 11:10:21;;;;;;;28.15;21.40;;;15.20;99.90;;;;;;4984379;28;20062;-74
2021/09/16 11:12:51;;;;;;;29.15;20.20;;;15.30;99.90;;;;;;4986468;28;20066;-72
2021/09/16 11:15:32;;;;;;;25.77;20.88;;;15.30;99.90;;;;;;4987525;28;20498;-72
2021/09/16 11:18:08;;;;;;;23.25;18.17;;;15.30;99.90;;;;;;4986896;28;20050;-72
2021/09/16 11:20:36;;;;;;;26.25;19.85;;;15.20;99.90;;;;;;4987345;28;20050;-72
2021/09/16 11:23:04;;;;;;;27.38;18.60;;;15.10;99.90;;;;;;4976182;28;20519;-73
2021/09/16 11:25:50;;;;;;;24.88;19.63;;;15.20;99.90;;;;;;4966829;28;20081;-72
2021/09/16 11:28:18;;;;;;;25.13;17.08;;;15.40;99.90;;;;;;4986768;28;20066;-71
2021/09/16 11:30:46;;;;;;;27.02;18.83;;;15.50;99.90;;;;;;4987560;28;20120;-72
2021/09/16 11:33:18;;;;;;;23.65;18.35;;;15.40;99.90;;;;;;4986839;28;20116;-72
2021/09/16 11:35:46;;;;;;;30.90;19.30;;;15.40;99.90;;;;;;4969085;28;20051;-72
2021/09/16 11:38:14;;;;;;;33.38;19.65;;;15.60;99.90;;;;;;4987289;28;20065;-72
2021/09/16 11:40:43;;;;;;;23.60;18.75;;;15.60;99.90;;;;;;4986871;28;20062;-72
2021/09/16 11:43:16;;;;;;;25.58;19.73;;;15.60;99.90;;;;;;4986362;28;20470;-72
2021/09/16 11:45:48;;;;;;;29.50;21.45;;;15.60;99.90;;;;;;4977988;28;20589;-72
2021/09/16 11:48:16;;;;;;;28.00;19.70;;;15.70;99.90;;;;;;4969397;28;20058;-72
2021/09/16 11:50:47;;;;;;;35.08;22.80;;;15.60;99.90;;;;;;4985876;28;20074;-72
2021/09/16 11:53:24;;;;;;;32.15;21.95;;;15.60;99.90;;;;;;4986746;28;20121;-72
2021/09/16 11:56:03;;;;;;;31.15;19.55;;;15.60;99.90;;;;;;4969439;28;20062;-72
2021/09/16 11:58:32;;;;;;;31.15;22.25;;;15.60;99.90;;;;;;4983556;28;20054;-72
2021/09/16 12:01:06;;;;;;;36.75;25.00;;;15.60;99.90;;;;;;4987757;28;20526;-72
2021/09/16 12:03:35;;;;;;;45.92;29.27;;;15.60;99.90;;;;;;4986648;28;20319;-72
2021/09/16 12:06:10;;;;;;;40.92;29.73;;;15.60;99.90;;;;;;4973087;28;20053;-72
2021/09/16 12:08:38;;;;;;;44.15;29.70;;;15.50;99.90;;;;;;4984411;28;20095;-71
2021/09/16 12:11:06;;;;;;;47.53;31.73;;;15.50;99.90;;;;;;4986738;28;20062;-71
2021/09/16 12:13:42;;;;;;;54.65;34.83;;;15.30;99.90;;;;;;4970876;28;20054;-71
2021/09/16 12:16:18;;;;;;;55.33;35.13;;;15.20;99.90;;;;;;4987626;28;20066;-71
2021/09/16 12:18:46;;;;;;;61.15;37.53;;;15.20;99.90;;;;;;4985655;28;20240;-71
2021/09/16 12:21:17;;;;;;;60.75;38.97;;;15.10;99.90;;;;;;4984681;28;20046;-71
2021/09/16 12:23:49;;;;;;;61.97;38.53;;;15.10;99.90;;;;;;4985410;28;20058;-72
2021/09/16 12:26:21;;;;;;;57.38;36.28;;;15.00;99.90;;;;;;4984103;28;20049;-72
2021/09/16 12:28:56;;;;;;;56.30;34.22;;;15.00;99.90;;;;;;4987106;28;20419;-72
2021/09/16 12:31:31;;;;;;;62.50;31.90;;;14.90;99.90;;;;;;4987315;28;20050;-71
2021/09/16 12:34:06;;;;;;;71.68;37.95;;;14.90;99.90;;;;;;4970249;28;20055;-71
2021/09/16 12:36:34;;;;;;;42.20;26.33;;;14.90;99.90;;;;;;4986519;28;20073;-72
2021/09/16 12:39:06;;;;;;;44.67;25.38;;;14.90;99.90;;;;;;4985230;28;20050;-71
2021/09/16 12:41:37;;;;;;;40.05;26.10;;;14.90;99.90;;;;;;4983952;28;20450;-71
2021/09/16 12:44:10;;;;;;;50.45;28.77;;;14.80;99.90;;;;;;4987687;28;20054;-72